createdAt,value
2018-06-03T00:01:37.188Z,0.85
2018-06-03T00:03:41.683Z,0.70
2018-06-03T00:05:46.751Z,1.17
2018-06-03T00:07:51.258Z,0.47
2018-06-03T00:09:55.785Z,0.20
2018-06-03T00:12:00.261Z,0.30
2018-06-03T00:14:10.227Z,0.20
2018-06-03T00:16:14.671Z,0.20
2018-06-03T00:18:19.423Z,0.80
2018-06-03T00:21:41.419Z,0.75
2018-06-03T00:23:45.873Z,0.20
2018-06-03T00:25:50.344Z,0.20
2018-06-03T00:27:54.828Z,1.15
2018-06-03T00:29:59.506Z,0.68
2018-06-03T00:32:04.144Z,0.50
2018-06-03T00:34:08.607Z,0.30
2018-06-03T00:36:30.023Z,1.00
2018-06-03T00:38:34.255Z,0.30
2018-06-03T00:40:39.538Z,0.63
2018-06-03T00:42:44.039Z,0.30
2018-06-03T00:44:48.515Z,0.20
2018-06-03T00:46:52.955Z,0.20
2018-06-03T00:48:57.322Z,0.33
2018-06-03T00:51:01.840Z,0.40
2018-06-03T00:53:06.315Z,0.20
2018-06-03T00:55:10.819Z,0.10
2018-06-03T00:57:15.370Z,0.97
2018-06-03T00:59:20.431Z,0.60
2018-06-03T01:01:27.230Z,0.30
2018-06-03T01:03:35.196Z,0.30
2018-06-03T01:05:42.757Z,0.30
2018-06-03T01:07:48.269Z,0.30
2018-06-03T01:09:55.991Z,0.90
2018-06-03T01:12:02.750Z,0.30
2018-06-03T01:14:11.731Z,0.30
2018-06-03T01:16:19.213Z,0.30
2018-06-03T01:18:26.652Z,0.20
2018-06-03T01:20:34.568Z,0.20
2018-06-03T01:22:42.923Z,1.27
2018-06-03T01:24:49.804Z,0.30
2018-06-03T01:26:57.395Z,0.35
2018-06-03T01:29:03.571Z,0.87
2018-06-03T01:31:11.854Z,0.20
2018-06-03T01:33:18.603Z,0.30
2018-06-03T01:35:27.126Z,0.63
2018-06-03T01:37:34.472Z,0.62
2018-06-03T01:39:43.279Z,0.40
2018-06-03T01:41:51.043Z,0.30
2018-06-03T01:43:57.425Z,0.30
2018-06-03T01:46:03.354Z,0.90
2018-06-03T01:48:10.907Z,0.20
2018-06-03T01:50:18.265Z,0.30
2018-06-03T01:52:24.259Z,0.30
2018-06-03T01:54:31.369Z,0.15
2018-06-03T01:56:38.911Z,0.62
2018-06-03T01:58:47.710Z,0.30
2018-06-03T02:00:54.695Z,0.90
2018-06-03T02:03:00.440Z,0.20
2018-06-03T02:05:04.912Z,0.20
2018-06-03T02:07:11.040Z,1.25
2018-06-03T02:09:18.979Z,0.30
2018-06-03T02:11:25.705Z,0.30
2018-06-03T02:13:33.287Z,0.30
2018-06-03T02:15:41.454Z,0.25
2018-06-03T02:17:47.147Z,0.30
2018-06-03T02:19:52.614Z,0.20
2018-06-03T02:21:59.909Z,0.30
2018-06-03T02:24:07.751Z,0.37
2018-06-03T02:26:12.271Z,0.95
2018-06-03T02:28:16.737Z,0.23
2018-06-03T02:30:21.794Z,0.20
2018-06-03T02:32:26.289Z,0.28
2018-06-03T02:34:30.744Z,0.40
2018-06-03T02:36:35.174Z,0.20
2018-06-03T02:38:40.852Z,0.20
2018-06-03T02:40:45.310Z,0.10
2018-06-03T02:42:49.792Z,0.20
2018-06-03T02:44:54.246Z,0.25
2018-06-03T02:46:58.712Z,0.20
2018-06-03T02:49:03.220Z,0.40
2018-06-03T02:51:08.120Z,0.30
2018-06-03T02:53:12.557Z,0.30
2018-06-03T02:55:17.020Z,0.33
2018-06-03T02:57:21.493Z,0.50
2018-06-03T02:59:25.947Z,0.20
2018-06-03T03:01:30.437Z,0.30
2018-06-03T03:03:34.865Z,0.20
2018-06-03T03:05:39.286Z,0.30
2018-06-03T03:07:43.772Z,0.20
2018-06-03T03:09:48.222Z,0.28
2018-06-03T03:11:52.699Z,0.50
2018-06-03T03:13:57.188Z,0.30
2018-06-03T03:16:01.651Z,0.20
2018-06-03T03:18:06.151Z,0.17
2018-06-03T03:20:10.614Z,0.47
2018-06-03T03:22:15.077Z,0.20
2018-06-03T03:24:19.539Z,0.20
2018-06-03T03:26:24.772Z,0.20
2018-06-03T03:28:29.186Z,0.20
2018-06-03T03:30:33.631Z,0.20
2018-06-03T03:32:38.092Z,0.57
2018-06-03T03:34:42.255Z,0.33
2018-06-03T03:36:47.307Z,0.40
2018-06-03T03:38:51.812Z,0.33
2018-06-03T03:40:56.267Z,0.30
2018-06-03T03:43:01.540Z,0.30
2018-06-03T03:45:05.980Z,1.07
2018-06-03T03:47:10.482Z,0.30
2018-06-03T03:49:14.690Z,0.30
2018-06-03T03:51:19.190Z,0.30
2018-06-03T03:53:23.648Z,0.20
2018-06-03T03:55:28.115Z,0.20
2018-06-03T03:57:35.724Z,0.33
2018-06-03T03:59:43.211Z,0.30
2018-06-03T04:01:51.910Z,0.20
2018-06-03T04:03:59.085Z,0.87
2018-06-03T04:06:06.447Z,0.20
2018-06-03T04:08:13.943Z,0.20
2018-06-03T04:10:19.237Z,1.10
2018-06-03T04:12:25.384Z,0.20
2018-06-03T04:14:31.006Z,0.30
2018-06-03T04:16:38.881Z,0.30
2018-06-03T04:18:45.942Z,0.30
2018-06-03T04:20:50.564Z,2.40
2018-06-03T04:22:55.073Z,0.20
2018-06-03T04:24:59.583Z,0.30
2018-06-03T04:27:04.056Z,0.20
2018-06-03T04:29:08.529Z,0.30
2018-06-03T04:31:12.986Z,0.42
2018-06-03T04:33:17.493Z,0.20
2018-06-03T04:35:22.412Z,0.75
2018-06-03T04:37:26.866Z,0.20
2018-06-03T04:39:31.370Z,0.30
2018-06-03T04:41:36.262Z,1.03
2018-06-03T04:43:41.679Z,0.30
2018-06-03T04:45:46.204Z,0.10
2018-06-03T04:47:50.664Z,0.20
2018-06-03T04:49:58.297Z,0.60
2018-06-03T04:52:03.024Z,0.27
2018-06-03T04:54:07.775Z,0.28
2018-06-03T04:56:12.227Z,0.53
2018-06-03T04:58:16.716Z,0.30
2018-06-03T05:00:21.163Z,0.30
2018-06-03T05:02:25.663Z,0.30
2018-06-03T05:04:30.603Z,0.37
2018-06-03T05:06:35.118Z,0.40
2018-06-03T05:08:39.581Z,0.33
2018-06-03T05:10:44.042Z,0.20
2018-06-03T05:12:48.491Z,0.60
2018-06-03T05:14:52.931Z,0.20
2018-06-03T05:16:57.398Z,0.10
2018-06-03T05:19:02.979Z,0.30
2018-06-03T05:21:07.448Z,0.17
2018-06-03T05:23:11.969Z,0.28
2018-06-03T05:25:16.505Z,0.27
2018-06-03T05:27:20.976Z,0.30
2018-06-03T05:29:25.415Z,0.20
2018-06-03T05:31:29.976Z,0.30
2018-06-03T05:33:34.552Z,0.47
2018-06-03T05:35:39.017Z,0.20
2018-06-03T05:37:43.567Z,0.30
2018-06-03T05:39:48.206Z,0.70
2018-06-03T05:41:52.651Z,0.83
2018-06-03T05:43:57.791Z,2.13
2018-06-03T05:46:03.460Z,1.33
2018-06-03T05:48:08.838Z,0.90
2018-06-03T05:50:13.267Z,0.90
2018-06-03T05:52:17.883Z,0.53
2018-06-03T05:54:23.470Z,0.83
2018-06-03T05:56:27.934Z,4.47
2018-06-03T05:58:32.383Z,5.40
2018-06-03T06:00:36.926Z,6.67
2018-06-03T06:02:41.399Z,8.93
2018-06-03T06:04:45.942Z,9.87
2018-06-03T06:06:50.532Z,9.83
2018-06-03T06:08:55.071Z,9.13
2018-06-03T06:11:00.159Z,8.13
2018-06-03T06:13:04.595Z,10.30
2018-06-03T06:15:09.115Z,9.70
2018-06-03T06:17:13.576Z,5.13
2018-06-03T06:19:18.059Z,12.17
2018-06-03T06:21:23.038Z,12.63
2018-06-03T06:23:27.526Z,16.73
2018-06-03T06:25:31.963Z,24.57
2018-06-03T06:27:36.440Z,29.00
2018-06-03T06:29:40.911Z,20.12
2018-06-03T06:31:45.491Z,25.80
2018-06-03T06:33:50.027Z,29.63
2018-06-03T06:35:54.451Z,30.52
2018-06-03T06:37:59.260Z,26.20
2018-06-03T06:40:09.511Z,28.62
2018-06-03T06:42:14.040Z,23.70
2018-06-03T06:44:18.580Z,21.77
2018-06-03T06:46:24.201Z,23.97
2018-06-03T06:48:29.410Z,24.55
2018-06-03T06:50:33.826Z,21.97
2018-06-03T06:52:38.275Z,21.30
2018-06-03T06:54:42.783Z,12.40
2018-06-03T06:56:47.473Z,16.57
2018-06-03T06:58:51.943Z,21.40
2018-06-03T07:00:56.482Z,13.68
2018-06-03T07:03:01.004Z,20.43
2018-06-03T07:05:05.764Z,20.13
2018-06-03T07:07:10.265Z,20.93
2018-06-03T07:09:14.759Z,23.83
2018-06-03T07:11:19.288Z,12.57
2018-06-03T07:13:23.819Z,21.07
2018-06-03T07:15:28.336Z,21.97
2018-06-03T07:17:32.937Z,19.13
2018-06-03T07:19:37.372Z,18.67
2018-06-03T07:21:41.883Z,20.80
2018-06-03T07:23:47.066Z,22.80
2018-06-03T07:25:51.542Z,10.88
2018-06-03T07:27:55.999Z,16.83
2018-06-03T07:30:00.589Z,13.58
2018-06-03T07:32:07.767Z,5.73
2018-06-03T07:34:12.305Z,4.20
2018-06-03T07:36:16.812Z,3.50
2018-06-03T07:38:21.293Z,3.50
2018-06-03T07:40:27.491Z,4.73
2018-06-03T07:42:33.802Z,6.77
2018-06-03T07:44:38.319Z,8.00
2018-06-03T07:46:42.795Z,4.73
2018-06-03T07:48:47.331Z,15.43
2018-06-03T07:50:51.823Z,19.05
2018-06-03T07:52:56.325Z,13.55
2018-06-03T07:55:01.655Z,9.93
2018-06-03T07:57:07.334Z,17.40
2018-06-03T07:59:17.208Z,20.20
2018-06-03T08:01:21.747Z,27.10
2018-06-03T08:03:27.454Z,20.53
2018-06-03T08:05:32.017Z,8.20
2018-06-03T08:07:36.530Z,6.63
2018-06-03T08:09:41.119Z,7.78
2018-06-03T08:11:45.595Z,7.13
2018-06-03T08:13:50.210Z,4.43
2018-06-03T08:15:55.800Z,10.18
2018-06-03T08:18:00.315Z,5.05
2018-06-03T08:20:04.891Z,14.90
2018-06-03T08:22:09.387Z,7.33
2018-06-03T08:24:13.972Z,12.37
2018-06-03T08:26:18.455Z,5.60
2018-06-03T08:28:23.057Z,4.67
2018-06-03T08:30:27.579Z,5.67
2018-06-03T08:32:32.046Z,3.80
2018-06-03T08:34:36.366Z,3.20
2018-06-03T08:36:44.298Z,10.50
2018-06-03T08:38:51.486Z,14.13
2018-06-03T08:40:59.284Z,10.10
2018-06-03T08:43:04.697Z,16.55
2018-06-03T08:45:11.126Z,17.97
2018-06-03T08:47:17.750Z,12.20
2018-06-03T08:49:22.833Z,10.27
2018-06-03T08:51:27.728Z,6.08
2018-06-03T08:53:32.213Z,14.70
2018-06-03T08:55:36.702Z,15.83
2018-06-03T08:57:41.196Z,17.17
2018-06-03T08:59:45.783Z,15.47
2018-06-03T09:01:50.292Z,13.87
2018-06-03T09:03:54.832Z,8.37
2018-06-03T09:05:59.347Z,9.00
2018-06-03T09:08:03.912Z,12.03
2018-06-03T09:10:08.452Z,8.53
2018-06-03T09:12:12.964Z,13.33
2018-06-03T09:14:17.478Z,7.87
2018-06-03T09:16:21.982Z,4.83
2018-06-03T09:18:27.611Z,4.10
2018-06-03T09:20:32.222Z,4.00
2018-06-03T09:22:36.747Z,11.60
2018-06-03T09:24:41.012Z,13.53
2018-06-03T09:26:45.688Z,6.92
2018-06-03T09:28:50.256Z,10.47
2018-06-03T09:31:00.099Z,8.55
2018-06-03T09:33:04.559Z,10.03
2018-06-03T09:35:09.093Z,11.33
2018-06-03T09:37:13.658Z,5.93
2018-06-03T09:39:18.173Z,9.57
2018-06-03T09:41:22.974Z,5.50
2018-06-03T09:43:28.156Z,4.78
2018-06-03T09:45:32.713Z,7.95
2018-06-03T09:47:37.243Z,4.73
2018-06-03T09:49:41.760Z,4.90
2018-06-03T09:51:46.320Z,4.60
2018-06-03T09:53:50.949Z,2.80
2018-06-03T09:55:55.479Z,3.43
2018-06-03T09:57:59.999Z,3.20
2018-06-03T10:00:04.742Z,4.00
2018-06-03T10:02:09.362Z,4.03
2018-06-03T10:04:13.848Z,12.78
2018-06-03T10:06:18.464Z,7.80
2018-06-03T10:08:23.147Z,13.87
2018-06-03T10:10:28.557Z,18.02
2018-06-03T10:12:33.005Z,17.87
2018-06-03T10:14:37.599Z,17.80
2018-06-03T10:16:45.155Z,17.35
2018-06-03T10:18:49.771Z,19.30
2018-06-03T10:20:56.971Z,18.55
2018-06-03T10:23:01.509Z,18.23
2018-06-03T10:25:06.281Z,17.20
2018-06-03T10:27:10.769Z,20.47
2018-06-03T10:29:15.268Z,23.27
2018-06-03T10:31:29.775Z,18.70
2018-06-03T10:33:36.150Z,17.30
2018-06-03T10:35:40.676Z,17.30
2018-06-03T10:37:45.365Z,17.00
2018-06-03T10:39:49.903Z,17.70
2018-06-03T10:41:54.551Z,18.70
2018-06-03T10:43:59.042Z,17.37
2018-06-03T10:46:03.571Z,16.23
2018-06-03T10:48:08.708Z,16.50
2018-06-03T10:50:13.213Z,17.43
2018-06-03T10:52:20.157Z,15.35
2018-06-03T10:54:24.680Z,16.73
2018-06-03T10:56:29.168Z,16.90
2018-06-03T10:58:34.257Z,17.02
2018-06-03T11:00:38.827Z,16.70
2018-06-03T11:02:43.587Z,17.33
2018-06-03T11:04:48.931Z,18.06
2018-06-03T11:06:53.496Z,18.90
2018-06-03T11:08:58.034Z,16.00
2018-06-03T11:11:02.561Z,16.25
2018-06-03T11:13:07.179Z,14.73
2018-06-03T11:15:11.729Z,19.33
2018-06-03T11:17:16.196Z,17.30
2018-06-03T11:19:20.720Z,16.77
2018-06-03T11:21:25.328Z,17.07
2018-06-03T11:23:29.824Z,16.70
2018-06-03T11:25:34.378Z,16.23
2018-06-03T11:27:38.929Z,16.87
2018-06-03T11:29:44.002Z,19.25
2018-06-03T11:31:49.820Z,15.88
2018-06-03T11:33:54.470Z,16.50
2018-06-03T11:35:58.987Z,17.00
2018-06-03T11:38:03.213Z,16.97
2018-06-03T11:40:07.780Z,16.93
2018-06-03T11:42:12.253Z,17.63
2018-06-03T11:44:16.766Z,16.07
2018-06-03T11:46:21.252Z,16.30
2018-06-03T11:48:25.859Z,16.00
2018-06-03T11:50:30.351Z,15.93
2018-06-03T11:52:34.851Z,15.97
2018-06-03T11:54:39.344Z,15.63
2018-06-03T11:57:00.846Z,15.15
2018-06-03T12:01:04.498Z,15.03
2018-06-03T12:03:09.332Z,16.27
2018-06-03T12:05:13.816Z,14.93
2018-06-03T12:07:18.347Z,16.10
2018-06-03T12:09:22.922Z,15.58
2018-06-03T12:11:27.475Z,15.90
2018-06-03T12:13:31.941Z,16.50
2018-06-03T12:15:36.439Z,15.80
2018-06-03T12:17:40.957Z,16.67
2018-06-03T12:19:45.501Z,16.20
2018-06-03T12:21:49.967Z,16.43
2018-06-03T12:23:54.520Z,17.27
2018-06-03T12:25:59.022Z,16.00
2018-06-03T12:28:03.512Z,16.87
2018-06-03T12:30:07.975Z,15.08
2018-06-03T12:32:12.493Z,15.83
2018-06-03T12:34:16.973Z,14.80
2018-06-03T12:36:21.499Z,14.23
2018-06-03T12:38:25.994Z,15.65
2018-06-03T12:40:30.547Z,15.53
2018-06-03T12:42:35.079Z,15.65
2018-06-03T12:44:41.504Z,15.13
2018-06-03T12:46:46.531Z,15.40
2018-06-03T12:48:52.497Z,15.07
2018-06-03T12:50:57.032Z,15.20
2018-06-03T12:53:01.570Z,16.80
2018-06-03T12:55:06.332Z,14.60
2018-06-03T12:57:11.150Z,14.53
2018-06-03T12:59:15.619Z,16.40
2018-06-03T13:01:20.172Z,13.80
2018-06-03T13:03:24.670Z,14.40
2018-06-03T13:05:29.903Z,14.65
2018-06-03T13:07:34.500Z,14.93
2018-06-03T13:09:39.015Z,14.65
2018-06-03T13:11:43.657Z,15.43
2018-06-03T13:13:48.112Z,15.45
2018-06-03T13:15:52.287Z,14.65
2018-06-03T13:17:56.773Z,15.20
2018-06-03T13:20:01.338Z,14.50
2018-06-03T13:22:05.869Z,15.58
2018-06-03T13:24:10.307Z,15.57
2018-06-03T13:26:14.823Z,14.65
2018-06-03T13:28:19.317Z,16.03
2018-06-03T13:30:23.846Z,14.27
2018-06-03T13:32:28.333Z,14.43
2018-06-03T13:34:32.891Z,13.77
2018-06-03T13:36:37.408Z,13.62
2018-06-03T13:38:41.978Z,13.48
2018-06-03T13:40:46.511Z,13.83
2018-06-03T13:42:51.068Z,13.28
2018-06-03T13:44:55.584Z,14.00
2018-06-03T13:47:00.147Z,13.63
2018-06-03T13:49:04.869Z,15.40
2018-06-03T13:51:09.439Z,15.17
2018-06-03T13:53:13.939Z,16.10
2018-06-03T13:55:18.485Z,14.20
2018-06-03T13:57:23.063Z,15.00
2018-06-03T13:59:27.659Z,15.00
2018-06-03T14:01:33.147Z,14.80
2018-06-03T14:03:41.003Z,13.76
2018-06-03T14:05:45.669Z,15.90
2018-06-03T14:07:50.243Z,14.58
2018-06-03T14:09:54.717Z,14.75
2018-06-03T14:11:59.192Z,15.80
2018-06-03T14:14:03.754Z,14.90
2018-06-03T14:16:08.273Z,14.13
2018-06-03T14:18:13.179Z,14.35
2018-06-03T14:20:17.768Z,13.74
2018-06-03T14:22:22.252Z,15.33
2018-06-03T14:24:26.951Z,14.30
2018-06-03T14:26:32.256Z,14.67
2018-06-03T14:28:36.770Z,15.18
2018-06-03T14:30:41.277Z,15.53
2018-06-03T14:32:45.817Z,16.07
2018-06-03T14:34:50.274Z,16.45
2018-06-03T14:36:54.402Z,15.88
2018-06-03T14:38:58.928Z,16.67
2018-06-03T14:41:03.467Z,15.03
2018-06-03T14:43:10.404Z,13.62
2018-06-03T14:45:14.988Z,14.25
2018-06-03T14:47:19.559Z,14.90
2018-06-03T14:49:24.043Z,14.00
2018-06-03T14:51:28.546Z,14.83
2018-06-03T14:53:33.651Z,15.54
2018-06-03T14:55:38.139Z,14.20
2018-06-03T14:57:42.687Z,16.00
2018-06-03T14:59:47.195Z,14.80
2018-06-03T15:01:51.688Z,15.80
2018-06-03T15:03:56.228Z,15.15
2018-06-03T15:06:00.388Z,14.63
2018-06-03T15:08:05.053Z,13.80
2018-06-03T15:10:09.551Z,15.32
2018-06-03T15:12:14.070Z,13.75
2018-06-03T15:14:18.283Z,13.90
2018-06-03T15:16:22.788Z,13.05
2018-06-03T15:18:27.396Z,13.33
2018-06-03T15:20:31.937Z,12.43
2018-06-03T15:22:36.460Z,13.72
2018-06-03T15:24:40.996Z,12.67
2018-06-03T15:26:45.503Z,13.87
2018-06-03T15:28:49.993Z,13.10
2018-06-03T15:30:54.519Z,13.80
2018-06-03T15:32:59.078Z,12.93
2018-06-03T15:35:03.697Z,13.15
2018-06-03T15:37:08.239Z,14.30
2018-06-03T15:39:13.888Z,13.38
2018-06-03T15:41:18.374Z,12.88
2018-06-03T15:43:22.908Z,13.48
2018-06-03T15:45:27.560Z,12.40
2018-06-03T15:47:32.125Z,12.37
2018-06-03T15:49:36.656Z,12.35
2018-06-03T15:51:41.268Z,11.70
2018-06-03T15:53:45.802Z,14.07
2018-06-03T15:55:50.317Z,13.17
2018-06-03T15:57:54.828Z,12.65
2018-06-03T15:59:59.445Z,11.70
2018-06-03T16:02:03.991Z,13.20
2018-06-03T16:04:08.564Z,11.00
2018-06-03T16:06:13.847Z,11.55
2018-06-03T16:08:18.392Z,12.15
2018-06-03T16:10:22.893Z,12.10
2018-06-03T16:12:27.383Z,11.73
2018-06-03T16:14:31.880Z,12.53
2018-06-03T16:16:36.371Z,13.05
2018-06-03T16:18:40.923Z,12.13
2018-06-03T16:20:45.391Z,13.10
2018-06-03T16:22:49.960Z,14.37
2018-06-03T16:24:54.551Z,13.20
2018-06-03T16:26:59.072Z,13.74
2018-06-03T16:29:03.571Z,13.58
2018-06-03T16:31:08.169Z,13.18
2018-06-03T16:33:12.776Z,14.45
2018-06-03T16:35:17.276Z,12.43
2018-06-03T16:37:21.762Z,13.80
2018-06-03T16:39:26.336Z,12.70
2018-06-03T16:41:30.807Z,11.97
2018-06-03T16:43:35.307Z,11.05
2018-06-03T16:45:39.742Z,12.13
2018-06-03T16:47:44.284Z,13.13
2018-06-03T16:49:48.842Z,13.15
2018-06-03T16:51:54.459Z,12.27
2018-06-03T16:53:58.971Z,12.95
2018-06-03T16:56:03.478Z,12.07
2018-06-03T16:58:07.959Z,10.23
2018-06-03T17:00:12.572Z,11.75
2018-06-03T17:02:17.004Z,11.93
2018-06-03T17:04:21.564Z,11.97
2018-06-03T17:06:26.075Z,10.60
2018-06-03T17:08:30.653Z,11.80
2018-06-03T17:10:35.232Z,11.70
2018-06-03T17:12:39.699Z,10.78
2018-06-03T17:14:44.328Z,11.45
2018-06-03T17:16:48.765Z,10.38
2018-06-03T17:18:53.287Z,11.10
2018-06-03T17:20:57.754Z,11.08
2018-06-03T17:23:02.264Z,10.73
2018-06-03T17:25:06.832Z,10.63
2018-06-03T17:27:11.312Z,10.60
2018-06-03T17:29:15.786Z,11.83
2018-06-03T17:31:20.299Z,11.60
2018-06-03T17:33:24.753Z,10.40
2018-06-03T17:35:29.507Z,10.37
2018-06-03T17:37:34.742Z,10.35
2018-06-03T17:39:39.222Z,10.43
2018-06-03T17:41:43.715Z,10.15
2018-06-03T17:43:48.299Z,9.70
2018-06-03T17:45:55.766Z,9.67
2018-06-03T17:48:00.344Z,9.30
2018-06-03T17:50:04.875Z,9.35
2018-06-03T17:52:09.361Z,9.63
2018-06-03T17:59:18.930Z,9.97
2018-06-03T18:01:23.509Z,10.00
2018-06-03T18:03:28.003Z,8.27
2018-06-03T18:05:32.548Z,10.23
2018-06-03T18:07:37.026Z,8.90
2018-06-03T18:09:41.641Z,8.60
2018-06-03T18:11:46.088Z,8.47
2018-06-03T18:13:50.575Z,7.80
2018-06-03T18:15:55.077Z,8.33
2018-06-03T18:17:59.617Z,9.07
2018-06-03T18:20:04.189Z,10.60
2018-06-03T18:22:08.636Z,9.30
2018-06-03T18:24:13.153Z,9.93
2018-06-03T18:26:17.655Z,8.83
2018-06-03T18:28:22.133Z,10.43
2018-06-03T18:30:26.326Z,9.00
2018-06-03T18:32:30.864Z,9.80
2018-06-03T18:34:35.316Z,9.50
2018-06-03T18:36:39.786Z,8.57
2018-06-03T18:38:44.412Z,9.20
2018-06-03T18:40:48.965Z,9.63
2018-06-03T18:42:53.480Z,11.57
2018-06-03T18:44:58.071Z,9.37
2018-06-03T18:47:02.560Z,8.67
2018-06-03T18:49:07.139Z,9.10
2018-06-03T18:51:11.636Z,11.07
2018-06-03T18:53:15.793Z,9.43
2018-06-03T18:55:20.568Z,8.43
2018-06-03T18:57:25.104Z,8.37
2018-06-03T18:59:29.676Z,8.10
2018-06-03T19:01:34.092Z,7.60
2018-06-03T19:03:38.538Z,7.40
2018-06-03T19:05:43.164Z,7.23
2018-06-03T19:07:47.743Z,7.53
2018-06-03T19:09:52.324Z,8.37
2018-06-03T19:11:56.800Z,9.40
2018-06-03T19:14:01.268Z,10.53
2018-06-03T19:16:05.885Z,9.60
2018-06-03T19:18:10.362Z,6.97
2018-06-03T19:20:14.948Z,7.90
2018-06-03T19:22:19.658Z,10.20
2018-06-03T19:24:24.240Z,7.20
2018-06-03T19:26:28.956Z,8.00
2018-06-03T19:28:33.650Z,11.37
2018-06-03T19:31:04.009Z,10.97
2018-06-03T19:33:20.545Z,8.53
2018-06-03T19:35:25.209Z,7.50
2018-06-03T19:37:29.830Z,7.90
2018-06-03T19:39:34.339Z,7.00
2018-06-03T19:41:39.091Z,9.77
2018-06-03T19:43:43.676Z,7.43
2018-06-03T19:45:48.241Z,8.30
2018-06-03T19:47:52.731Z,6.50
2018-06-03T19:49:57.271Z,7.33
2018-06-03T19:52:01.786Z,10.27
2018-06-03T19:54:06.306Z,7.87
2018-06-03T19:56:10.815Z,7.17
2018-06-03T19:58:15.374Z,8.03
2018-06-03T20:00:19.911Z,8.00
2018-06-03T20:02:24.513Z,8.33
2018-06-03T20:04:28.980Z,7.20
2018-06-03T20:06:33.438Z,6.83
2018-06-03T20:08:37.943Z,6.80
2018-06-03T20:10:42.524Z,7.77
2018-06-03T20:12:46.999Z,7.03
2018-06-03T20:14:51.655Z,7.27
2018-06-03T20:16:56.441Z,7.53
2018-06-03T20:19:00.904Z,7.13
2018-06-03T20:21:05.455Z,9.13
2018-06-03T20:23:09.978Z,7.00
2018-06-03T20:25:14.474Z,8.17
2018-06-03T20:27:19.006Z,7.67
2018-06-03T20:29:23.512Z,7.93
2018-06-03T20:31:28.164Z,6.87
2018-06-03T20:33:32.672Z,6.50
2018-06-03T20:35:37.525Z,6.77
2018-06-03T20:37:42.019Z,7.13
2018-06-03T20:39:46.439Z,7.07
2018-06-03T20:41:51.055Z,11.17
2018-06-03T20:43:55.524Z,11.20
2018-06-03T20:46:00.104Z,7.17
2018-06-03T20:48:04.614Z,6.67
2018-06-03T20:50:09.083Z,7.03
2018-06-03T20:52:13.536Z,8.00
2018-06-03T20:54:17.998Z,8.17
2018-06-03T20:56:22.464Z,6.80
2018-06-03T20:58:26.978Z,9.63
2018-06-03T21:00:31.899Z,8.00
2018-06-03T21:02:36.431Z,7.50
2018-06-03T21:04:40.839Z,7.97
2018-06-03T21:06:45.394Z,10.70
2018-06-03T21:08:49.907Z,7.27
2018-06-03T21:10:54.392Z,8.63
2018-06-03T21:12:58.855Z,7.13
2018-06-03T21:15:03.378Z,7.90
2018-06-03T21:17:07.917Z,7.60
2018-06-03T21:19:12.416Z,6.17
2018-06-03T21:21:16.955Z,6.73
2018-06-03T21:23:21.454Z,7.00
2018-06-03T21:25:26.041Z,7.27
2018-06-03T21:27:30.507Z,7.87
2018-06-03T21:29:34.940Z,7.43
2018-06-03T21:31:39.414Z,6.33
2018-06-03T21:33:43.898Z,6.27
2018-06-03T21:35:48.371Z,6.53
2018-06-03T21:37:52.931Z,7.03
2018-06-03T21:39:57.387Z,7.57
2018-06-03T21:42:02.027Z,7.03
2018-06-03T21:44:06.563Z,7.87
2018-06-03T21:46:11.166Z,8.43
2018-06-03T21:48:15.624Z,6.77
2018-06-03T21:50:20.072Z,6.63
2018-06-03T21:52:24.574Z,8.10
2018-06-03T21:54:29.029Z,6.70
2018-06-03T21:56:33.564Z,6.93
2018-06-03T21:58:38.034Z,6.40
2018-06-03T22:00:42.689Z,6.13
2018-06-03T22:02:47.167Z,7.57
2018-06-03T22:04:51.721Z,8.37
2018-06-03T22:06:56.247Z,7.60
2018-06-03T22:09:00.804Z,8.17
2018-06-03T22:11:05.300Z,6.00
2018-06-03T22:13:09.857Z,6.57
2018-06-03T22:15:14.347Z,8.67
2018-06-03T22:17:18.897Z,7.00
2018-06-03T22:19:23.513Z,8.23
2018-06-03T22:21:27.992Z,6.53
2018-06-03T22:23:32.509Z,8.37
2018-06-03T22:25:36.975Z,6.27
2018-06-03T22:27:41.482Z,9.43
2018-06-03T22:29:45.995Z,7.37
2018-06-03T22:31:50.463Z,7.92
2018-06-03T22:33:54.902Z,7.83
2018-06-03T22:35:59.429Z,7.20
2018-06-03T22:38:04.048Z,6.90
2018-06-03T22:40:08.621Z,6.33
2018-06-03T22:42:13.145Z,7.63
2018-06-03T22:44:17.680Z,5.97
2018-06-03T22:46:22.137Z,9.20
2018-06-03T22:48:26.667Z,7.97
2018-06-03T22:50:33.376Z,7.57
2018-06-03T22:52:37.495Z,8.57
2018-06-03T22:54:42.778Z,7.43
2018-06-03T22:57:56.567Z,8.63
2018-06-03T23:00:01.781Z,6.83
2018-06-03T23:02:07.843Z,8.07
2018-06-03T23:04:13.646Z,6.43
2018-06-03T23:06:18.532Z,6.67
2018-06-03T23:08:23.117Z,7.13
2018-06-03T23:10:27.817Z,7.30
2018-06-03T23:12:32.344Z,6.07
2018-06-03T23:14:36.819Z,6.07
2018-06-03T23:16:41.299Z,7.13
2018-06-03T23:18:45.844Z,6.20
2018-06-03T23:20:50.393Z,5.93
2018-06-03T23:22:55.050Z,6.03
2018-06-03T23:24:59.576Z,6.40
2018-06-03T23:27:04.140Z,6.73
2018-06-03T23:29:08.623Z,5.70
2018-06-03T23:31:13.118Z,6.57
2018-06-03T23:33:17.595Z,10.43
2018-06-03T23:35:22.852Z,6.07
2018-06-03T23:37:27.339Z,6.57
2018-06-03T23:39:31.814Z,5.80
2018-06-03T23:41:36.319Z,6.00
2018-06-03T23:43:40.840Z,6.17
2018-06-03T23:45:45.947Z,5.90
2018-06-03T23:47:50.523Z,10.83
2018-06-03T23:49:54.974Z,5.93
2018-06-03T23:51:59.417Z,5.33
2018-06-03T23:54:03.611Z,6.30
2018-06-03T23:56:09.404Z,6.23
2018-06-03T23:58:14.284Z,5.50
